Hovedside
METAR-TAF:

METAR-TAF

Lufthavner :

Røros lufthavn

Røros, Norge

breddegrad: 62-35N, lengdegrad: 011-21E, høyde over havet: 626 m

Gjeldene værobservasjon

Denne rapporten ble laget for 25 minutter siden, klokken 21:50 UTC
Vind 6 kt fra Nord-nordvest
Temperatur -1°C
Luftfuktighet 100%
Trykk 1003 hPa
Sikt: 3500 m
lett snø

METAR: ENRO 242150Z AUTO 34006KT 3500NDV -SN VV015 M01/M01 Q1003

Tid: 23:15 (22:15 UTC)

Varsel

Denne rapporten ble laget for 11 timer og 15 minutter siden, klokken 11:00 UTC
Varsel gyldig fra 24. klokken 13 UTC til 24. klokken 19 UTC
Vind 12 kt fra Vest-sørvest
Sikt 10 km eller mer
Spredte skyer i en høyde av 3000 ft
Midlertidig
fra 24. klokken 14 UTC til 24. klokken 19 UTC
Sikt: 4000 m
Brutte skyer i en høyde av 1500 ft
Spredte skyer i en høyde av 2000 ft, Bygeskyer.
lette snøbyger

TAF: ENRO 241100Z 2413/2419 24012KT 9999 SCT030 TEMPO 2414/2419 4000 -SHSN BKN015 SCT020CB

Værobservasjoner og værvarsel for over 4000 flyplasser (METAR- og TAF-rapporter).

Tilgjengelige stasjoner er representert av de røde og gule prikkene på kartet.

Hold musepekeren over prikken for å se navnet på stasjonen.

Klikk så for å se værobservasjoner og -varsler.

For å forandre kartet kan du klikke på den grønne knappen med svart kryss for å zoome inn, på den grønne knappen med strek for å zoome ut, eller på de grønne pilene for å se tilstøtende kart.


METAR-TAF: